Portada
METAR-TAF:

METAR-TAF

Aeroports :

Tôlanaro, Madagascar

latitud: 25-02S, longitud: 046-57E, altitud: 8 m

Observació

L'informe es va fer fa 24 minuts, a les 23:00 UTC
Vent calma
Temperatura 22°C
Humitat 94%
Pressió 1010 hPa
Visibilitat 10 km o més
Núvols disperses a una alçada de 1600 ft
Cel ennuvolat a una alçada de 3300 ft
xàfecs en les proximitats

METAR: FMSD 202300Z 00000KT 9999 VCSH SCT016 BKN033 22/21 Q1010

Hora: 02:24 (23:24 UTC)

Pronòstic

L'informe es va fer fa 6 hores i 24 minuts, a les 17:00 UTC
Pronòstic vàlid del 20 a les 18 UTC al 21 a les 18 UTC
Vent 14 kt del Sud-Oest
Visibilitat 10 km o més
Núvols disperses a una alçada de 1600 ft
Cel ennuvolat a una alçada de 3300 ft
Probabilitat 30% :
Temporalment
l' 20 a les 18 UTC al 21 a les 05 UTC
Visibilitat: 4500 m
xàfecs de pluja
Evolucionant progressivament
l' 20 a les 21 UTC al 20 a les 24 UTC
Vent 10 kt del Sud/Sud-Est

TAF: FMSD 201700Z 2018/2118 22014KT 9999 SCT016 BKN033 PROB30 TEMPO 2018/2105 4500 SHRA BECMG 2021/2024 16010KT

Observacions i pronòstics meteorològics de més de 4000 aeroports (METAR i TAF).

Les estacions disponibles són els punts grocs i vermells al mapa.

Posi el ratolí al punt desitjat per veure el nom de l'estació.

Feu clic per veure les observacions i els pronòstics meteorològics.

Per canviar el mapa: feu clic els botons verds amb una creu de color negre per apropar; al botó verd amb un guió per allunyar la imatge; o en les fletxes verdes per a mapes adjacents.


METAR-TAF: